Time,TemperatureF,DewpointF,PressureIn,WindDirection,WindDirectionDegrees,WindSpeedMPH,WindSpeedGustMPH,Humidity,HourlyPrecipIn,Conditions,Clouds,dailyrainin,SolarRadiationWatts/m^2,SoftwareType,DateUTC
2013-03-10 00:01:00,59.0,33.0,-100.00,SSE,163,5.0,12.0,38,0.00,,,0.00,0.000000,,2013-03-10 06:01:00,
2013-03-10 00:11:00,59.0,33.0,-100.00,SSE,163,5.0,12.0,38,0.00,,,0.00,0.000000,,2013-03-10 06:11:00,
2013-03-10 00:22:00,59.0,33.0,-100.00,SSE,163,5.0,12.0,38,0.00,,,0.00,0.000000,,2013-03-10 06:22:00,
2013-03-10 00:52:00,59.0,34.0,-100.00,SE,140,6.0,13.0,39,0.00,,,0.00,0.000000,,2013-03-10 06:52:00,
2013-03-10 01:02:00,59.0,34.0,-100.00,SE,140,6.0,13.0,39,0.00,,,0.00,0.000000,,2013-03-10 07:02:00,
2013-03-10 01:11:00,59.0,34.0,-100.00,SE,140,6.0,13.0,39,0.00,,,0.00,0.000000,,2013-03-10 07:11:00,
2013-03-10 01:21:00,59.0,34.0,-100.00,SE,140,6.0,13.0,39,0.00,,,0.00,0.000000,,2013-03-10 07:21:00,
2013-03-10 01:52:00,60.0,34.0,-100.00,SSE,160,7.0,13.0,38,0.00,,,0.00,0.000000,,2013-03-10 07:52:00,
2013-03-10 03:01:00,60.0,34.0,-100.00,SSE,160,7.0,13.0,38,0.00,,,0.00,0.000000,,2013-03-10 08:01:00,
2013-03-10 03:11:00,60.0,34.0,-100.00,SSE,160,7.0,13.0,38,0.00,,,0.00,0.000000,,2013-03-10 08:11:00,
2013-03-10 03:21:00,60.0,34.0,-100.00,SSE,160,7.0,13.0,38,0.00,,,0.00,0.000000,,2013-03-10 08:21:00,
2013-03-10 03:52:00,60.0,34.0,-100.00,South,174,6.0,14.0,38,0.00,,,0.00,0.000000,,2013-03-10 08:52:00,
2013-03-10 04:01:00,60.0,34.0,-100.00,South,174,6.0,14.0,38,0.00,,,0.00,0.000000,,2013-03-10 09:01:00,
2013-03-10 04:11:00,60.0,34.0,-100.00,South,174,6.0,14.0,38,0.00,,,0.00,0.000000,,2013-03-10 09:11:00,
2013-03-10 04:21:00,60.0,34.0,-100.00,South,174,6.0,14.0,38,0.00,,,0.00,0.000000,,2013-03-10 09:21:00,
2013-03-10 04:52:00,60.0,36.0,-100.00,SSE,168,8.0,15.0,41,0.00,,,0.00,0.000000,,2013-03-10 09:52:00,
2013-03-10 05:01:00,60.0,36.0,-100.00,SSE,168,8.0,15.0,41,0.00,,,0.00,0.000000,,2013-03-10 10:01:00,
2013-03-10 05:11:00,60.0,36.0,-100.00,SSE,168,8.0,15.0,41,0.00,,,0.00,0.000000,,2013-03-10 10:11:00,
2013-03-10 05:21:00,60.0,36.0,-100.00,SSE,168,8.0,15.0,41,0.00,,,0.00,0.000000,,2013-03-10 10:21:00,
2013-03-10 05:52:00,60.0,38.0,-100.00,South,169,8.0,19.0,44,0.00,,,0.00,0.000000,,2013-03-10 10:52:00,
2013-03-10 06:01:00,60.0,38.0,-100.00,South,169,8.0,19.0,44,0.00,,,0.00,0.000000,,2013-03-10 11:01:00,
2013-03-10 06:12:00,60.0,38.0,-100.00,South,169,8.0,19.0,44,0.00,,,0.00,0.000000,,2013-03-10 11:12:00,
2013-03-10 06:21:00,60.0,38.0,-100.00,South,169,8.0,19.0,44,0.00,,,0.00,0.000000,,2013-03-10 11:21:00,
2013-03-10 08:52:00,59.0,35.0,-100.00,SSE,165,9.0,18.0,41,-99.99,,,0.00,63.000000,,2013-03-10 13:52:00,
2013-03-10 09:01:00,59.0,35.0,-100.00,SSE,165,9.0,18.0,41,-99.99,,,0.00,63.000000,,2013-03-10 14:01:00,
2013-03-10 09:11:00,59.0,35.0,-100.00,SSE,165,9.0,18.0,41,-99.99,,,0.00,63.000000,,2013-03-10 14:11:00,
2013-03-10 09:21:00,59.0,35.0,-100.00,SSE,165,9.0,18.0,41,-99.99,,,0.00,63.000000,,2013-03-10 14:21:00,
2013-03-10 09:52:00,60.0,32.0,-100.00,SSE,166,13.0,24.0,35,0.00,,,0.00,174.000000,,2013-03-10 14:52:00,
2013-03-10 10:01:00,60.0,32.0,-100.00,SSE,166,13.0,24.0,35,0.00,,,0.00,174.000000,,2013-03-10 15:01:00,
2013-03-10 10:11:00,60.0,32.0,-100.00,SSE,166,13.0,24.0,35,0.00,,,0.00,174.000000,,2013-03-10 15:11:00,
2013-03-10 10:21:00,60.0,32.0,-100.00,SSE,166,13.0,24.0,35,0.00,,,0.00,174.000000,,2013-03-10 15:21:00,
2013-03-10 10:52:00,63.0,32.0,-100.00,SSE,163,13.0,26.0,31,0.00,,,0.00,271.000000,,2013-03-10 15:52:00,
2013-03-10 11:01:00,63.0,32.0,-100.00,SSE,163,13.0,26.0,31,0.00,,,0.00,271.000000,,2013-03-10 16:01:00,
2013-03-10 11:12:00,63.0,32.0,-100.00,SSE,163,13.0,26.0,31,0.00,,,0.00,271.000000,,2013-03-10 16:12:00,
2013-03-10 11:21:00,63.0,32.0,-100.00,SSE,163,13.0,26.0,31,0.00,,,0.00,271.000000,,2013-03-10 16:21:00,
2013-03-10 11:52:00,64.0,33.0,-100.00,SSE,166,14.0,31.0,31,0.00,,,0.00,500.000000,,2013-03-10 16:52:00,
2013-03-10 12:01:00,64.0,33.0,-100.00,SSE,166,14.0,31.0,31,0.00,,,0.00,500.000000,,2013-03-10 17:01:00,
2013-03-10 12:11:00,64.0,33.0,-100.00,SSE,166,14.0,31.0,31,0.00,,,0.00,500.000000,,2013-03-10 17:11:00,
2013-03-10 12:21:00,64.0,33.0,-100.00,SSE,166,14.0,31.0,31,0.00,,,0.00,500.000000,,2013-03-10 17:21:00,
2013-03-10 12:51:00,67.0,36.0,-100.00,SSE,161,11.0,24.0,32,0.00,,,0.00,502.000000,,2013-03-10 17:51:00,
2013-03-10 13:01:00,67.0,36.0,-100.00,SSE,161,11.0,24.0,32,0.00,,,0.00,502.000000,,2013-03-10 18:01:00,
2013-03-10 13:11:00,67.0,36.0,-100.00,SSE,161,11.0,24.0,32,0.00,,,0.00,502.000000,,2013-03-10 18:11:00,
2013-03-10 13:21:00,67.0,36.0,-100.00,SSE,161,11.0,24.0,32,0.00,,,0.00,502.000000,,2013-03-10 18:21:00,
2013-03-10 13:52:00,68.0,41.0,-100.00,South,175,15.0,30.0,37,0.00,,,0.00,598.000000,,2013-03-10 18:52:00,
2013-03-10 14:01:00,68.0,41.0,-100.00,South,175,15.0,30.0,37,0.00,,,0.00,598.000000,,2013-03-10 19:01:00,
2013-03-10 14:11:00,68.0,41.0,-100.00,South,175,15.0,30.0,37,0.00,,,0.00,598.000000,,2013-03-10 19:11:00,
2013-03-10 14:21:00,68.0,41.0,-100.00,South,175,15.0,30.0,37,0.00,,,0.00,598.000000,,2013-03-10 19:21:00,
2013-03-10 14:53:00,68.0,44.0,-100.00,SSE,163,12.0,32.0,42,0.00,,,0.00,279.000000,,2013-03-10 19:53:00,
2013-03-10 15:02:00,68.0,44.0,-100.00,SSE,163,12.0,32.0,42,0.00,,,0.00,279.000000,,2013-03-10 20:02:00,
2013-03-10 15:12:00,68.0,44.0,-100.00,SSE,163,12.0,32.0,42,0.00,,,0.00,279.000000,,2013-03-10 20:12:00,
2013-03-10 15:22:00,68.0,44.0,-100.00,SSE,163,12.0,32.0,42,0.00,,,0.00,279.000000,,2013-03-10 20:22:00,
2013-03-10 15:53:00,71.0,45.0,-100.00,South,172,12.0,31.0,39,0.00,,,0.00,256.000000,,2013-03-10 20:53:00,
2013-03-10 16:02:00,71.0,45.0,-100.00,South,172,12.0,31.0,39,0.00,,,0.00,256.000000,,2013-03-10 21:02:00,
2013-03-10 16:12:00,71.0,45.0,-100.00,South,172,12.0,31.0,39,0.00,,,0.00,256.000000,,2013-03-10 21:12:00,
2013-03-10 16:23:00,71.0,45.0,-100.00,South,172,12.0,31.0,39,0.00,,,0.00,256.000000,,2013-03-10 21:23:00,
2013-03-10 16:53:00,69.0,43.0,-100.00,South,177,12.0,28.0,39,0.00,,,0.00,139.000000,,2013-03-10 21:53:00,
2013-03-10 17:02:00,69.0,43.0,-100.00,South,177,12.0,28.0,39,0.00,,,0.00,139.000000,,2013-03-10 22:02:00,
2013-03-10 17:12:00,69.0,43.0,-100.00,South,177,12.0,28.0,39,0.00,,,0.00,139.000000,,2013-03-10 22:12:00,
2013-03-10 17:22:00,69.0,43.0,-100.00,South,177,12.0,28.0,39,0.00,,,0.00,139.000000,,2013-03-10 22:22:00,
2013-03-10 17:53:00,65.0,48.0,-100.00,SSE,154,8.0,20.0,55,0.01,,,0.01,49.000000,,2013-03-10 22:53:00,
2013-03-10 18:03:00,65.0,48.0,-100.00,SSE,154,8.0,20.0,55,0.01,,,0.01,49.000000,,2013-03-10 23:03:00,
2013-03-10 18:12:00,65.0,48.0,-100.00,SSE,154,8.0,20.0,55,0.01,,,0.01,49.000000,,2013-03-10 23:12:00,
2013-03-10 18:23:00,65.0,48.0,-100.00,SSE,154,8.0,20.0,55,0.01,,,0.01,49.000000,,2013-03-10 23:23:00,
2013-03-10 18:52:00,59.0,52.0,-100.00,WSW,238,5.0,18.0,79,0.05,,,0.06,13.000000,,2013-03-10 23:52:00,
2013-03-10 19:02:00,59.0,52.0,-100.00,WSW,238,5.0,18.0,79,0.05,,,0.06,13.000000,,2013-03-11 00:02:00,
2013-03-10 19:12:00,59.0,52.0,-100.00,WSW,238,5.0,18.0,79,0.05,,,0.06,13.000000,,2013-03-11 00:12:00,
2013-03-10 19:23:00,59.0,52.0,-100.00,WSW,238,5.0,18.0,79,0.05,,,0.06,13.000000,,2013-03-11 00:23:00,
2013-03-10 19:53:00,56.0,55.0,-100.00,SW,231,1.0,14.0,97,0.17,,,0.23,0.000000,,2013-03-11 00:53:00,
2013-03-10 20:03:00,56.0,55.0,-100.00,SW,231,1.0,14.0,97,0.17,,,0.23,0.000000,,2013-03-11 01:03:00,
2013-03-10 20:13:00,56.0,55.0,-100.00,SW,231,1.0,14.0,97,0.17,,,0.23,0.000000,,2013-03-11 01:13:00,
2013-03-10 20:23:00,56.0,55.0,-100.00,SW,231,1.0,14.0,97,0.17,,,0.23,0.000000,,2013-03-11 01:23:00,
2013-03-10 20:53:00,53.0,52.0,-100.00,ESE,109,2.0,8.0,98,0.19,,,0.42,0.000000,,2013-03-11 01:53:00,
2013-03-10 21:02:00,53.0,52.0,-100.00,ESE,109,2.0,8.0,98,0.19,,,0.42,0.000000,,2013-03-11 02:02:00,
2013-03-10 21:12:00,53.0,52.0,-100.00,ESE,109,2.0,8.0,98,0.19,,,0.42,0.000000,,2013-03-11 02:12:00,
2013-03-10 21:22:00,53.0,52.0,-100.00,ESE,109,2.0,8.0,98,0.19,,,0.42,0.000000,,2013-03-11 02:22:00,
2013-03-10 21:53:00,54.0,54.0,-100.00,SW,221,0.0,4.0,99,0.20,,,0.62,0.000000,,2013-03-11 02:53:00,
2013-03-10 22:02:00,54.0,54.0,-100.00,SW,221,0.0,4.0,99,0.20,,,0.62,0.000000,,2013-03-11 03:02:00,
2013-03-10 22:12:00,54.0,54.0,-100.00,SW,221,0.0,4.0,99,0.20,,,0.62,0.000000,,2013-03-11 03:12:00,
2013-03-10 22:22:00,54.0,54.0,-100.00,SW,221,0.0,4.0,99,0.20,,,0.62,0.000000,,2013-03-11 03:22:00,
2013-03-10 22:53:00,54.0,54.0,-100.00,West,280,3.0,6.0,99,0.28,,,0.90,0.000000,,2013-03-11 03:53:00,
2013-03-10 23:02:00,54.0,54.0,-100.00,West,280,3.0,6.0,99,0.28,,,0.90,0.000000,,2013-03-11 04:02:00,
2013-03-10 23:12:00,54.0,54.0,-100.00,West,280,3.0,6.0,99,0.28,,,0.90,0.000000,,2013-03-11 04:12:00,
2013-03-10 23:22:00,54.0,54.0,-100.00,West,280,3.0,6.0,99,0.28,,,0.90,0.000000,,2013-03-11 04:22:00,
2013-03-10 23:53:00,54.0,53.0,-100.00,SW,233,6.0,15.0,98,0.32,,,1.22,0.000000,,2013-03-11 04:53:00,